sensor_id;sensor_type;location;lat;lon;timestamp;P1;durP1;ratioP1;P2;durP2;ratioP2
43996;SDS011;34318;45.818;15.964;2023-04-03T00:00:48;5.53;;;4.05;;
43996;SDS011;34318;45.818;15.964;2023-04-03T00:03:16;7.30;;;4.15;;
43996;SDS011;34318;45.818;15.964;2023-04-03T00:05:44;9.48;;;5.05;;
43996;SDS011;34318;45.818;15.964;2023-04-03T00:08:11;5.82;;;4.00;;
43996;SDS011;34318;45.818;15.964;2023-04-03T00:10:39;3.88;;;3.50;;
43996;SDS011;34318;45.818;15.964;2023-04-03T00:13:06;4.57;;;4.05;;
43996;SDS011;34318;45.818;15.964;2023-04-03T00:15:34;5.25;;;3.72;;
43996;SDS011;34318;45.818;15.964;2023-04-03T00:18:02;4.80;;;4.07;;
43996;SDS011;34318;45.818;15.964;2023-04-03T00:20:30;4.22;;;3.53;;
43996;SDS011;34318;45.818;15.964;2023-04-03T00:22:57;6.05;;;4.20;;
43996;SDS011;34318;45.818;15.964;2023-04-03T00:25:25;4.88;;;4.05;;
43996;SDS011;34318;45.818;15.964;2023-04-03T00:27:52;4.38;;;3.70;;
43996;SDS011;34318;45.818;15.964;2023-04-03T00:30:20;7.60;;;4.13;;
43996;SDS011;34318;45.818;15.964;2023-04-03T00:32:48;5.88;;;3.70;;
43996;SDS011;34318;45.818;15.964;2023-04-03T00:35:15;5.22;;;3.50;;
43996;SDS011;34318;45.818;15.964;2023-04-03T00:37:42;5.47;;;3.92;;
43996;SDS011;34318;45.818;15.964;2023-04-03T00:40:10;6.25;;;3.92;;
43996;SDS011;34318;45.818;15.964;2023-04-03T00:42:39;4.93;;;3.83;;
43996;SDS011;34318;45.818;15.964;2023-04-03T00:47:40;5.88;;;4.07;;
43996;SDS011;34318;45.818;15.964;2023-04-03T00:50:08;6.55;;;3.35;;
43996;SDS011;34318;45.818;15.964;2023-04-03T00:52:35;3.95;;;3.50;;
43996;SDS011;34318;45.818;15.964;2023-04-03T00:55:05;6.28;;;3.63;;
43996;SDS011;34318;45.818;15.964;2023-04-03T00:57:33;5.55;;;3.33;;
43996;SDS011;34318;45.818;15.964;2023-04-03T01:00:04;4.55;;;3.90;;
43996;SDS011;34318;45.818;15.964;2023-04-03T01:02:32;6.47;;;3.90;;
43996;SDS011;34318;45.818;15.964;2023-04-03T01:04:59;4.85;;;3.78;;
43996;SDS011;34318;45.818;15.964;2023-04-03T01:07:27;5.05;;;3.28;;
43996;SDS011;34318;45.818;15.964;2023-04-03T01:09:57;4.72;;;3.67;;
43996;SDS011;34318;45.818;15.964;2023-04-03T01:12:29;4.07;;;3.33;;
43996;SDS011;34318;45.818;15.964;2023-04-03T01:17:35;4.60;;;3.63;;
43996;SDS011;34318;45.818;15.964;2023-04-03T01:22:42;4.15;;;3.22;;
43996;SDS011;34318;45.818;15.964;2023-04-03T01:25:13;3.83;;;3.42;;
43996;SDS011;34318;45.818;15.964;2023-04-03T01:27:41;5.10;;;3.83;;
43996;SDS011;34318;45.818;15.964;2023-04-03T01:30:08;4.55;;;3.53;;
43996;SDS011;34318;45.818;15.964;2023-04-03T01:32:35;3.42;;;3.13;;
43996;SDS011;34318;45.818;15.964;2023-04-03T01:35:03;3.60;;;3.30;;
43996;SDS011;34318;45.818;15.964;2023-04-03T01:37:30;5.25;;;3.55;;
43996;SDS011;34318;45.818;15.964;2023-04-03T01:39:57;4.07;;;3.67;;
43996;SDS011;34318;45.818;15.964;2023-04-03T01:42:24;3.95;;;3.25;;
43996;SDS011;34318;45.818;15.964;2023-04-03T01:44:52;4.85;;;3.40;;
43996;SDS011;34318;45.818;15.964;2023-04-03T01:47:19;3.80;;;3.08;;
43996;SDS011;34318;45.818;15.964;2023-04-03T01:49:46;5.15;;;3.25;;
43996;SDS011;34318;45.818;15.964;2023-04-03T01:52:13;4.53;;;3.20;;
43996;SDS011;34318;45.818;15.964;2023-04-03T01:54:41;3.83;;;3.17;;
43996;SDS011;34318;45.818;15.964;2023-04-03T01:57:08;3.20;;;2.90;;
43996;SDS011;34318;45.818;15.964;2023-04-03T01:59:36;4.50;;;3.25;;
43996;SDS011;34318;45.818;15.964;2023-04-03T02:02:03;3.53;;;3.22;;
43996;SDS011;34318;45.818;15.964;2023-04-03T02:04:30;3.30;;;3.00;;
43996;SDS011;34318;45.818;15.964;2023-04-03T02:06:58;3.70;;;3.17;;
43996;SDS011;34318;45.818;15.964;2023-04-03T02:09:25;5.15;;;3.58;;
43996;SDS011;34318;45.818;15.964;2023-04-03T02:11:52;6.63;;;3.72;;
43996;SDS011;34318;45.818;15.964;2023-04-03T02:14:20;4.05;;;3.20;;
43996;SDS011;34318;45.818;15.964;2023-04-03T02:16:49;4.93;;;3.50;;
43996;SDS011;34318;45.818;15.964;2023-04-03T02:19:17;3.35;;;3.00;;
43996;SDS011;34318;45.818;15.964;2023-04-03T02:21:44;3.60;;;3.20;;
43996;SDS011;34318;45.818;15.964;2023-04-03T02:24:11;3.83;;;3.33;;
43996;SDS011;34318;45.818;15.964;2023-04-03T02:26:38;3.72;;;2.60;;
43996;SDS011;34318;45.818;15.964;2023-04-03T02:29:06;5.10;;;3.33;;
43996;SDS011;34318;45.818;15.964;2023-04-03T02:31:33;4.47;;;3.22;;
43996;SDS011;34318;45.818;15.964;2023-04-03T02:34:00;3.60;;;3.17;;
43996;SDS011;34318;45.818;15.964;2023-04-03T02:36:27;3.65;;;3.30;;
43996;SDS011;34318;45.818;15.964;2023-04-03T02:38:57;4.25;;;2.90;;
43996;SDS011;34318;45.818;15.964;2023-04-03T02:41:24;4.30;;;3.42;;
43996;SDS011;34318;45.818;15.964;2023-04-03T02:43:58;3.28;;;2.90;;
43996;SDS011;34318;45.818;15.964;2023-04-03T02:46:25;3.65;;;2.95;;
43996;SDS011;34318;45.818;15.964;2023-04-03T02:48:52;3.00;;;2.70;;
43996;SDS011;34318;45.818;15.964;2023-04-03T02:51:20;4.32;;;3.38;;
43996;SDS011;34318;45.818;15.964;2023-04-03T02:53:47;3.10;;;2.83;;
43996;SDS011;34318;45.818;15.964;2023-04-03T02:56:14;4.57;;;2.90;;
43996;SDS011;34318;45.818;15.964;2023-04-03T02:58:43;4.47;;;3.22;;
43996;SDS011;34318;45.818;15.964;2023-04-03T03:01:11;2.85;;;2.65;;
43996;SDS011;34318;45.818;15.964;2023-04-03T03:03:38;9.02;;;2.83;;
43996;SDS011;34318;45.818;15.964;2023-04-03T03:06:13;3.75;;;3.08;;
43996;SDS011;34318;45.818;15.964;2023-04-03T03:08:41;3.43;;;3.07;;
43996;SDS011;34318;45.818;15.964;2023-04-03T03:11:08;3.35;;;2.85;;
43996;SDS011;34318;45.818;15.964;2023-04-03T03:13:36;3.10;;;2.80;;
43996;SDS011;34318;45.818;15.964;2023-04-03T03:16:03;4.20;;;2.80;;
43996;SDS011;34318;45.818;15.964;2023-04-03T03:18:31;4.80;;;2.90;;
43996;SDS011;34318;45.818;15.964;2023-04-03T03:20:59;3.30;;;2.80;;
43996;SDS011;34318;45.818;15.964;2023-04-03T03:23:28;6.18;;;3.10;;
43996;SDS011;34318;45.818;15.964;2023-04-03T03:25:56;4.38;;;3.17;;
43996;SDS011;34318;45.818;15.964;2023-04-03T03:28:23;3.08;;;2.88;;
43996;SDS011;34318;45.818;15.964;2023-04-03T03:30:51;2.70;;;2.50;;
43996;SDS011;34318;45.818;15.964;2023-04-03T03:33:18;2.95;;;2.50;;
43996;SDS011;34318;45.818;15.964;2023-04-03T03:35:45;3.03;;;2.60;;
43996;SDS011;34318;45.818;15.964;2023-04-03T03:38:13;3.40;;;2.90;;
43996;SDS011;34318;45.818;15.964;2023-04-03T03:40:40;3.60;;;2.80;;
43996;SDS011;34318;45.818;15.964;2023-04-03T03:43:07;3.30;;;3.00;;
43996;SDS011;34318;45.818;15.964;2023-04-03T03:45:34;5.57;;;2.90;;
43996;SDS011;34318;45.818;15.964;2023-04-03T03:48:02;3.90;;;3.22;;
43996;SDS011;34318;45.818;15.964;2023-04-03T03:50:29;3.67;;;2.47;;
43996;SDS011;34318;45.818;15.964;2023-04-03T03:52:57;2.55;;;2.35;;
43996;SDS011;34318;45.818;15.964;2023-04-03T03:55:24;4.80;;;3.30;;
43996;SDS011;34318;45.818;15.964;2023-04-03T03:57:51;2.85;;;2.58;;
43996;SDS011;34318;45.818;15.964;2023-04-03T04:00:18;2.60;;;2.40;;
43996;SDS011;34318;45.818;15.964;2023-04-03T04:02:46;2.70;;;2.50;;
43996;SDS011;34318;45.818;15.964;2023-04-03T04:05:13;4.82;;;2.67;;
43996;SDS011;34318;45.818;15.964;2023-04-03T04:07:40;3.72;;;2.83;;
43996;SDS011;34318;45.818;15.964;2023-04-03T04:10:08;2.92;;;2.63;;
43996;SDS011;34318;45.818;15.964;2023-04-03T04:12:35;4.10;;;2.72;;
43996;SDS011;34318;45.818;15.964;2023-04-03T04:15:03;2.88;;;2.33;;
43996;SDS011;34318;45.818;15.964;2023-04-03T04:17:30;2.75;;;2.50;;
43996;SDS011;34318;45.818;15.964;2023-04-03T04:19:57;4.78;;;2.70;;
43996;SDS011;34318;45.818;15.964;2023-04-03T04:22:24;2.63;;;2.42;;
43996;SDS011;34318;45.818;15.964;2023-04-03T04:24:52;3.63;;;2.63;;
43996;SDS011;34318;45.818;15.964;2023-04-03T04:27:19;2.65;;;2.45;;
43996;SDS011;34318;45.818;15.964;2023-04-03T04:29:46;3.28;;;2.60;;
43996;SDS011;34318;45.818;15.964;2023-04-03T04:32:13;2.72;;;2.30;;
43996;SDS011;34318;45.818;15.964;2023-04-03T04:34:40;3.30;;;2.70;;
43996;SDS011;34318;45.818;15.964;2023-04-03T04:37:08;3.70;;;2.80;;
43996;SDS011;34318;45.818;15.964;2023-04-03T04:39:35;2.47;;;2.28;;
43996;SDS011;34318;45.818;15.964;2023-04-03T04:42:02;3.08;;;2.63;;
43996;SDS011;34318;45.818;15.964;2023-04-03T04:44:30;3.83;;;3.10;;
43996;SDS011;34318;45.818;15.964;2023-04-03T04:46:57;3.05;;;2.60;;
43996;SDS011;34318;45.818;15.964;2023-04-03T04:49:24;5.75;;;2.85;;
43996;SDS011;34318;45.818;15.964;2023-04-03T04:51:51;3.83;;;2.72;;
43996;SDS011;34318;45.818;15.964;2023-04-03T04:54:18;5.63;;;3.10;;
43996;SDS011;34318;45.818;15.964;2023-04-03T04:56:46;5.05;;;3.15;;
43996;SDS011;34318;45.818;15.964;2023-04-03T04:59:13;2.88;;;2.53;;
43996;SDS011;34318;45.818;15.964;2023-04-03T05:01:40;3.45;;;2.70;;
43996;SDS011;34318;45.818;15.964;2023-04-03T05:04:08;5.70;;;2.70;;
43996;SDS011;34318;45.818;15.964;2023-04-03T05:06:35;4.78;;;3.40;;
43996;SDS011;34318;45.818;15.964;2023-04-03T05:09:02;3.67;;;2.58;;
43996;SDS011;34318;45.818;15.964;2023-04-03T05:11:30;9.75;;;3.13;;
43996;SDS011;34318;45.818;15.964;2023-04-03T05:13:57;5.50;;;3.35;;
43996;SDS011;34318;45.818;15.964;2023-04-03T05:16:25;6.07;;;3.55;;
43996;SDS011;34318;45.818;15.964;2023-04-03T05:18:52;6.43;;;3.13;;
43996;SDS011;34318;45.818;15.964;2023-04-03T05:21:19;6.68;;;3.30;;
43996;SDS011;34318;45.818;15.964;2023-04-03T05:23:49;7.93;;;3.15;;
43996;SDS011;34318;45.818;15.964;2023-04-03T05:26:16;8.73;;;3.88;;
43996;SDS011;34318;45.818;15.964;2023-04-03T05:28:43;8.07;;;3.72;;
43996;SDS011;34318;45.818;15.964;2023-04-03T05:31:11;4.32;;;3.33;;
43996;SDS011;34318;45.818;15.964;2023-04-03T05:33:38;6.30;;;3.60;;
43996;SDS011;34318;45.818;15.964;2023-04-03T05:36:05;3.58;;;2.70;;
43996;SDS011;34318;45.818;15.964;2023-04-03T05:38:33;3.40;;;2.97;;
43996;SDS011;34318;45.818;15.964;2023-04-03T05:41:00;9.77;;;3.65;;
43996;SDS011;34318;45.818;15.964;2023-04-03T05:43:27;2.90;;;2.60;;
43996;SDS011;34318;45.818;15.964;2023-04-03T05:45:55;7.38;;;3.38;;
43996;SDS011;34318;45.818;15.964;2023-04-03T05:48:22;6.72;;;2.88;;
43996;SDS011;34318;45.818;15.964;2023-04-03T05:50:49;6.75;;;3.83;;
43996;SDS011;34318;45.818;15.964;2023-04-03T05:53:21;6.20;;;3.00;;
43996;SDS011;34318;45.818;15.964;2023-04-03T05:55:48;7.57;;;3.10;;
43996;SDS011;34318;45.818;15.964;2023-04-03T05:58:16;9.25;;;3.42;;
43996;SDS011;34318;45.818;15.964;2023-04-03T06:00:43;7.05;;;3.53;;
43996;SDS011;34318;45.818;15.964;2023-04-03T06:03:11;3.75;;;2.95;;
43996;SDS011;34318;45.818;15.964;2023-04-03T06:05:38;8.50;;;4.10;;
43996;SDS011;34318;45.818;15.964;2023-04-03T06:08:06;12.23;;;4.18;;
43996;SDS011;34318;45.818;15.964;2023-04-03T06:10:33;10.77;;;3.70;;
43996;SDS011;34318;45.818;15.964;2023-04-03T06:13:01;7.70;;;3.20;;
43996;SDS011;34318;45.818;15.964;2023-04-03T06:15:28;4.88;;;3.40;;
43996;SDS011;34318;45.818;15.964;2023-04-03T06:17:55;8.70;;;3.50;;
43996;SDS011;34318;45.818;15.964;2023-04-03T06:20:23;9.35;;;3.90;;
43996;SDS011;34318;45.818;15.964;2023-04-03T06:22:51;7.75;;;3.60;;
43996;SDS011;34318;45.818;15.964;2023-04-03T06:25:18;8.73;;;3.50;;
43996;SDS011;34318;45.818;15.964;2023-04-03T06:27:45;15.77;;;4.07;;
43996;SDS011;34318;45.818;15.964;2023-04-03T06:30:13;11.35;;;4.43;;
43996;SDS011;34318;45.818;15.964;2023-04-03T06:32:40;7.50;;;4.00;;
43996;SDS011;34318;45.818;15.964;2023-04-03T06:35:09;8.13;;;3.90;;
43996;SDS011;34318;45.818;15.964;2023-04-03T06:37:36;10.07;;;3.97;;
43996;SDS011;34318;45.818;15.964;2023-04-03T06:40:04;10.75;;;4.78;;
43996;SDS011;34318;45.818;15.964;2023-04-03T06:42:31;12.15;;;4.68;;
43996;SDS011;34318;45.818;15.964;2023-04-03T06:44:59;7.18;;;3.63;;
43996;SDS011;34318;45.818;15.964;2023-04-03T06:47:26;7.30;;;3.33;;
43996;SDS011;34318;45.818;15.964;2023-04-03T06:49:54;3.75;;;2.60;;
43996;SDS011;34318;45.818;15.964;2023-04-03T06:52:22;7.40;;;2.97;;
43996;SDS011;34318;45.818;15.964;2023-04-03T06:54:49;6.88;;;2.45;;
43996;SDS011;34318;45.818;15.964;2023-04-03T06:57:23;6.65;;;2.80;;
43996;SDS011;34318;45.818;15.964;2023-04-03T06:59:50;4.13;;;2.85;;
43996;SDS011;34318;45.818;15.964;2023-04-03T07:02:18;3.42;;;2.40;;
43996;SDS011;34318;45.818;15.964;2023-04-03T07:04:47;4.85;;;3.05;;
43996;SDS011;34318;45.818;15.964;2023-04-03T07:07:14;4.00;;;2.60;;
43996;SDS011;34318;45.818;15.964;2023-04-03T07:09:43;4.68;;;2.88;;
43996;SDS011;34318;45.818;15.964;2023-04-03T07:12:11;5.20;;;3.15;;
43996;SDS011;34318;45.818;15.964;2023-04-03T07:14:38;6.13;;;2.92;;
43996;SDS011;34318;45.818;15.964;2023-04-03T07:17:05;5.15;;;2.85;;
43996;SDS011;34318;45.818;15.964;2023-04-03T07:19:32;3.42;;;2.78;;
43996;SDS011;34318;45.818;15.964;2023-04-03T07:22:00;6.25;;;3.03;;
43996;SDS011;34318;45.818;15.964;2023-04-03T07:24:27;5.97;;;3.35;;
43996;SDS011;34318;45.818;15.964;2023-04-03T07:26:54;4.18;;;3.55;;
43996;SDS011;34318;45.818;15.964;2023-04-03T07:29:22;4.90;;;3.45;;
43996;SDS011;34318;45.818;15.964;2023-04-03T07:31:50;5.10;;;3.60;;
43996;SDS011;34318;45.818;15.964;2023-04-03T07:34:17;4.80;;;3.80;;
43996;SDS011;34318;45.818;15.964;2023-04-03T07:36:44;4.88;;;3.75;;
43996;SDS011;34318;45.818;15.964;2023-04-03T07:39:11;7.38;;;4.30;;
43996;SDS011;34318;45.818;15.964;2023-04-03T07:41:39;8.60;;;4.13;;
43996;SDS011;34318;45.818;15.964;2023-04-03T07:44:06;7.47;;;4.10;;
43996;SDS011;34318;45.818;15.964;2023-04-03T07:46:36;6.38;;;4.10;;
43996;SDS011;34318;45.818;15.964;2023-04-03T07:49:04;43.95;;;24.23;;
43996;SDS011;34318;45.818;15.964;2023-04-03T07:51:31;41.55;;;24.35;;
43996;SDS011;34318;45.818;15.964;2023-04-03T07:53:58;35.95;;;19.83;;
43996;SDS011;34318;45.818;15.964;2023-04-03T07:56:26;28.65;;;16.58;;
43996;SDS011;34318;45.818;15.964;2023-04-03T07:58:53;29.73;;;15.50;;
43996;SDS011;34318;45.818;15.964;2023-04-03T08:01:21;24.77;;;14.70;;
43996;SDS011;34318;45.818;15.964;2023-04-03T08:03:48;27.17;;;14.30;;
43996;SDS011;34318;45.818;15.964;2023-04-03T08:06:17;24.00;;;15.00;;
43996;SDS011;34318;45.818;15.964;2023-04-03T08:08:58;26.05;;;15.60;;
43996;SDS011;34318;45.818;15.964;2023-04-03T08:11:25;23.17;;;14.52;;
43996;SDS011;34318;45.818;15.964;2023-04-03T08:13:52;23.58;;;13.93;;
43996;SDS011;34318;45.818;15.964;2023-04-03T08:16:20;23.98;;;15.43;;
43996;SDS011;34318;45.818;15.964;2023-04-03T08:18:48;24.60;;;13.82;;
43996;SDS011;34318;45.818;15.964;2023-04-03T08:21:15;25.27;;;15.13;;
43996;SDS011;34318;45.818;15.964;2023-04-03T08:23:43;25.23;;;14.73;;
43996;SDS011;34318;45.818;15.964;2023-04-03T08:26:11;25.42;;;13.93;;
43996;SDS011;34318;45.818;15.964;2023-04-03T08:28:39;24.98;;;14.23;;
43996;SDS011;34318;45.818;15.964;2023-04-03T08:31:08;22.42;;;12.15;;
43996;SDS011;34318;45.818;15.964;2023-04-03T08:33:37;19.98;;;12.65;;
43996;SDS011;34318;45.818;15.964;2023-04-03T08:36:05;21.42;;;14.18;;
43996;SDS011;34318;45.818;15.964;2023-04-03T08:38:33;22.25;;;12.80;;
43996;SDS011;34318;45.818;15.964;2023-04-03T08:41:04;19.92;;;12.75;;
43996;SDS011;34318;45.818;15.964;2023-04-03T08:46:01;20.00;;;13.40;;
43996;SDS011;34318;45.818;15.964;2023-04-03T08:48:31;18.55;;;12.18;;
43996;SDS011;34318;45.818;15.964;2023-04-03T08:51:00;19.10;;;12.45;;
43996;SDS011;34318;45.818;15.964;2023-04-03T08:53:38;23.23;;;12.10;;
43996;SDS011;34318;45.818;15.964;2023-04-03T08:56:10;19.05;;;12.00;;
43996;SDS011;34318;45.818;15.964;2023-04-03T08:58:45;17.77;;;11.68;;
43996;SDS011;34318;45.818;15.964;2023-04-03T09:03:47;20.60;;;11.68;;
43996;SDS011;34318;45.818;15.964;2023-04-03T09:06:15;21.15;;;11.85;;
43996;SDS011;34318;45.818;15.964;2023-04-03T09:16:47;20.83;;;11.77;;
43996;SDS011;34318;45.818;15.964;2023-04-03T09:24:45;16.65;;;9.77;;
43996;SDS011;34318;45.818;15.964;2023-04-03T09:27:14;15.80;;;10.73;;
43996;SDS011;34318;45.818;15.964;2023-04-03T09:29:41;15.90;;;11.20;;
43996;SDS011;34318;45.818;15.964;2023-04-03T09:34:54;16.98;;;10.43;;
43996;SDS011;34318;45.818;15.964;2023-04-03T09:38:01;14.88;;;9.75;;
43996;SDS011;34318;45.818;15.964;2023-04-03T09:43:00;15.75;;;10.27;;
43996;SDS011;34318;45.818;15.964;2023-04-03T09:45:34;13.95;;;9.82;;
43996;SDS011;34318;45.818;15.964;2023-04-03T09:48:12;17.90;;;10.65;;
43996;SDS011;34318;45.818;15.964;2023-04-03T09:50:53;21.33;;;10.68;;
43996;SDS011;34318;45.818;15.964;2023-04-03T09:55:52;16.17;;;10.10;;
43996;SDS011;34318;45.818;15.964;2023-04-03T09:58:26;17.63;;;12.38;;
43996;SDS011;34318;45.818;15.964;2023-04-03T10:06:51;41.65;;;20.92;;
43996;SDS011;34318;45.818;15.964;2023-04-03T10:09:25;46.95;;;21.30;;
43996;SDS011;34318;45.818;15.964;2023-04-03T10:12:04;39.83;;;19.87;;
43996;SDS011;34318;45.818;15.964;2023-04-03T10:17:18;37.13;;;19.70;;
43996;SDS011;34318;45.818;15.964;2023-04-03T10:25:12;32.78;;;18.10;;
43996;SDS011;34318;45.818;15.964;2023-04-03T10:27:48;36.30;;;19.17;;
43996;SDS011;34318;45.818;15.964;2023-04-03T10:30:25;29.95;;;18.58;;
43996;SDS011;34318;45.818;15.964;2023-04-03T10:35:50;33.05;;;17.52;;
43996;SDS011;34318;45.818;15.964;2023-04-03T10:46:35;32.53;;;17.60;;
43996;SDS011;34318;45.818;15.964;2023-04-03T10:51:29;27.05;;;15.30;;
43996;SDS011;34318;45.818;15.964;2023-04-03T10:56:54;33.03;;;15.75;;
43996;SDS011;34318;45.818;15.964;2023-04-03T11:02:06;26.15;;;15.75;;
43996;SDS011;34318;45.818;15.964;2023-04-03T11:04:36;24.75;;;14.60;;
43996;SDS011;34318;45.818;15.964;2023-04-03T11:07:22;30.83;;;16.10;;
43996;SDS011;34318;45.818;15.964;2023-04-03T11:09:52;31.70;;;16.35;;
43996;SDS011;34318;45.818;15.964;2023-04-03T11:12:23;26.23;;;14.38;;
43996;SDS011;34318;45.818;15.964;2023-04-03T11:14:53;27.25;;;15.88;;
43996;SDS011;34318;45.818;15.964;2023-04-03T11:17:33;29.15;;;14.88;;
43996;SDS011;34318;45.818;15.964;2023-04-03T11:20:08;26.20;;;14.25;;
43996;SDS011;34318;45.818;15.964;2023-04-03T11:22:43;29.52;;;14.95;;
43996;SDS011;34318;45.818;15.964;2023-04-03T11:27:43;26.98;;;14.38;;
43996;SDS011;34318;45.818;15.964;2023-04-03T11:30:14;30.25;;;14.93;;
43996;SDS011;34318;45.818;15.964;2023-04-03T11:35:28;27.73;;;15.52;;
43996;SDS011;34318;45.818;15.964;2023-04-03T11:37:55;25.70;;;14.68;;
43996;SDS011;34318;45.818;15.964;2023-04-03T11:40:31;25.88;;;13.23;;
43996;SDS011;34318;45.818;15.964;2023-04-03T11:50:50;24.95;;;13.85;;
43996;SDS011;34318;45.818;15.964;2023-04-03T11:55:58;26.75;;;13.70;;
43996;SDS011;34318;45.818;15.964;2023-04-03T12:00:57;28.30;;;13.57;;
43996;SDS011;34318;45.818;15.964;2023-04-03T12:21:22;22.77;;;11.95;;
43996;SDS011;34318;45.818;15.964;2023-04-03T12:24:04;25.15;;;12.43;;
43996;SDS011;34318;45.818;15.964;2023-04-03T12:29:21;21.33;;;11.10;;
43996;SDS011;34318;45.818;15.964;2023-04-03T12:34:41;21.65;;;11.23;;
43996;SDS011;34318;45.818;15.964;2023-04-03T12:39:45;21.45;;;11.65;;
43996;SDS011;34318;45.818;15.964;2023-04-03T12:44:47;17.70;;;9.35;;
43996;SDS011;34318;45.818;15.964;2023-04-03T12:47:21;21.52;;;10.05;;
43996;SDS011;34318;45.818;15.964;2023-04-03T12:49:49;22.38;;;10.82;;
43996;SDS011;34318;45.818;15.964;2023-04-03T12:55:07;24.60;;;11.10;;
43996;SDS011;34318;45.818;15.964;2023-04-03T12:57:36;21.27;;;10.35;;
43996;SDS011;34318;45.818;15.964;2023-04-03T13:00:18;22.95;;;10.85;;
43996;SDS011;34318;45.818;15.964;2023-04-03T13:02:45;21.20;;;10.05;;
43996;SDS011;34318;45.818;15.964;2023-04-03T13:05:15;20.27;;;9.93;;
43996;SDS011;34318;45.818;15.964;2023-04-03T13:07:43;23.80;;;10.65;;
43996;SDS011;34318;45.818;15.964;2023-04-03T13:10:14;21.25;;;9.52;;
43996;SDS011;34318;45.818;15.964;2023-04-03T13:15:15;19.38;;;9.95;;
43996;SDS011;34318;45.818;15.964;2023-04-03T13:17:42;21.98;;;9.52;;
43996;SDS011;34318;45.818;15.964;2023-04-03T13:20:27;17.25;;;9.43;;
43996;SDS011;34318;45.818;15.964;2023-04-03T13:23:05;17.70;;;9.18;;
43996;SDS011;34318;45.818;15.964;2023-04-03T13:25:36;14.30;;;9.02;;
43996;SDS011;34318;45.818;15.964;2023-04-03T13:28:05;21.95;;;9.98;;
43996;SDS011;34318;45.818;15.964;2023-04-03T13:30:39;18.42;;;9.57;;
43996;SDS011;34318;45.818;15.964;2023-04-03T13:33:24;16.73;;;9.85;;
43996;SDS011;34318;45.818;15.964;2023-04-03T13:35:56;16.60;;;9.15;;
43996;SDS011;34318;45.818;15.964;2023-04-03T13:38:25;21.52;;;9.68;;
43996;SDS011;34318;45.818;15.964;2023-04-03T13:40:54;16.08;;;8.90;;
43996;SDS011;34318;45.818;15.964;2023-04-03T13:43:26;18.08;;;9.88;;
43996;SDS011;34318;45.818;15.964;2023-04-03T13:46:36;15.30;;;8.43;;
43996;SDS011;34318;45.818;15.964;2023-04-03T13:48:47;19.05;;;8.88;;
43996;SDS011;34318;45.818;15.964;2023-04-03T13:51:17;22.33;;;9.35;;
43996;SDS011;34318;45.818;15.964;2023-04-03T13:59:19;16.77;;;8.05;;
43996;SDS011;34318;45.818;15.964;2023-04-03T14:01:37;21.02;;;8.57;;
43996;SDS011;34318;45.818;15.964;2023-04-03T14:04:15;13.73;;;7.30;;
43996;SDS011;34318;45.818;15.964;2023-04-03T14:06:43;19.48;;;9.30;;
43996;SDS011;34318;45.818;15.964;2023-04-03T14:09:11;23.90;;;8.15;;
43996;SDS011;34318;45.818;15.964;2023-04-03T14:11:39;18.05;;;8.30;;
43996;SDS011;34318;45.818;15.964;2023-04-03T14:14:13;20.58;;;7.93;;
43996;SDS011;34318;45.818;15.964;2023-04-03T14:16:41;18.00;;;8.05;;
43996;SDS011;34318;45.818;15.964;2023-04-03T14:19:26;13.82;;;7.43;;
43996;SDS011;34318;45.818;15.964;2023-04-03T14:21:54;15.23;;;7.72;;
43996;SDS011;34318;45.818;15.964;2023-04-03T14:24:22;17.70;;;7.65;;
43996;SDS011;34318;45.818;15.964;2023-04-03T14:26:50;13.88;;;7.72;;
43996;SDS011;34318;45.818;15.964;2023-04-03T14:29:18;19.80;;;7.78;;
43996;SDS011;34318;45.818;15.964;2023-04-03T14:31:47;12.93;;;7.15;;
43996;SDS011;34318;45.818;15.964;2023-04-03T14:34:17;13.57;;;7.45;;
43996;SDS011;34318;45.818;15.964;2023-04-03T14:36:44;15.73;;;7.80;;
43996;SDS011;34318;45.818;15.964;2023-04-03T14:39:16;12.30;;;6.50;;
43996;SDS011;34318;45.818;15.964;2023-04-03T14:41:43;11.27;;;6.50;;
43996;SDS011;34318;45.818;15.964;2023-04-03T14:44:11;11.00;;;6.45;;
43996;SDS011;34318;45.818;15.964;2023-04-03T14:46:39;14.57;;;6.72;;
43996;SDS011;34318;45.818;15.964;2023-04-03T14:49:23;13.82;;;6.63;;
43996;SDS011;34318;45.818;15.964;2023-04-03T14:51:51;16.85;;;6.65;;
43996;SDS011;34318;45.818;15.964;2023-04-03T14:54:20;10.68;;;6.10;;
43996;SDS011;34318;45.818;15.964;2023-04-03T14:56:51;8.48;;;5.78;;
43996;SDS011;34318;45.818;15.964;2023-04-03T14:59:19;10.27;;;5.70;;
43996;SDS011;34318;45.818;15.964;2023-04-03T15:01:48;11.85;;;6.30;;
43996;SDS011;34318;45.818;15.964;2023-04-03T15:04:16;13.52;;;6.80;;
43996;SDS011;34318;45.818;15.964;2023-04-03T15:06:45;13.68;;;6.90;;
43996;SDS011;34318;45.818;15.964;2023-04-03T15:09:16;12.40;;;6.10;;
43996;SDS011;34318;45.818;15.964;2023-04-03T15:11:45;20.17;;;6.07;;
43996;SDS011;34318;45.818;15.964;2023-04-03T15:14:13;9.65;;;5.97;;
43996;SDS011;34318;45.818;15.964;2023-04-03T15:16:55;13.55;;;6.20;;
43996;SDS011;34318;45.818;15.964;2023-04-03T15:19:22;13.65;;;5.97;;
43996;SDS011;34318;45.818;15.964;2023-04-03T15:21:50;9.80;;;6.35;;
43996;SDS011;34318;45.818;15.964;2023-04-03T15:24:17;10.57;;;6.35;;
43996;SDS011;34318;45.818;15.964;2023-04-03T15:26:45;12.05;;;6.22;;
43996;SDS011;34318;45.818;15.964;2023-04-03T15:29:12;11.48;;;5.65;;
43996;SDS011;34318;45.818;15.964;2023-04-03T15:31:39;16.50;;;5.50;;
43996;SDS011;34318;45.818;15.964;2023-04-03T15:34:07;13.40;;;5.78;;
43996;SDS011;34318;45.818;15.964;2023-04-03T15:36:34;17.15;;;6.13;;
43996;SDS011;34318;45.818;15.964;2023-04-03T15:39:01;14.68;;;6.60;;
43996;SDS011;34318;45.818;15.964;2023-04-03T15:41:29;8.90;;;4.90;;
43996;SDS011;34318;45.818;15.964;2023-04-03T15:43:56;10.60;;;5.95;;
43996;SDS011;34318;45.818;15.964;2023-04-03T15:46:23;11.90;;;6.13;;
43996;SDS011;34318;45.818;15.964;2023-04-03T15:48:50;8.45;;;5.00;;
43996;SDS011;34318;45.818;15.964;2023-04-03T15:51:18;8.43;;;5.30;;
43996;SDS011;34318;45.818;15.964;2023-04-03T15:53:45;7.95;;;5.30;;
43996;SDS011;34318;45.818;15.964;2023-04-03T15:56:12;8.57;;;5.97;;
43996;SDS011;34318;45.818;15.964;2023-04-03T15:58:39;9.57;;;5.60;;
43996;SDS011;34318;45.818;15.964;2023-04-03T16:01:08;11.50;;;5.88;;
43996;SDS011;34318;45.818;15.964;2023-04-03T16:03:36;8.00;;;5.05;;
43996;SDS011;34318;45.818;15.964;2023-04-03T16:06:13;7.25;;;5.00;;
43996;SDS011;34318;45.818;15.964;2023-04-03T16:08:41;10.70;;;5.68;;
43996;SDS011;34318;45.818;15.964;2023-04-03T16:11:08;11.30;;;5.57;;
43996;SDS011;34318;45.818;15.964;2023-04-03T16:13:35;6.93;;;5.03;;
43996;SDS011;34318;45.818;15.964;2023-04-03T16:16:03;10.90;;;6.25;;
43996;SDS011;34318;45.818;15.964;2023-04-03T16:18:31;12.27;;;6.00;;
43996;SDS011;34318;45.818;15.964;2023-04-03T16:20:58;10.43;;;5.28;;
43996;SDS011;34318;45.818;15.964;2023-04-03T16:23:25;10.60;;;5.20;;
43996;SDS011;34318;45.818;15.964;2023-04-03T16:25:53;10.65;;;5.38;;
43996;SDS011;34318;45.818;15.964;2023-04-03T16:28:20;12.98;;;5.20;;
43996;SDS011;34318;45.818;15.964;2023-04-03T16:30:47;15.10;;;6.30;;
43996;SDS011;34318;45.818;15.964;2023-04-03T16:33:15;11.50;;;6.10;;
43996;SDS011;34318;45.818;15.964;2023-04-03T16:35:42;10.85;;;6.18;;
43996;SDS011;34318;45.818;15.964;2023-04-03T16:38:10;8.43;;;5.50;;
43996;SDS011;34318;45.818;15.964;2023-04-03T16:40:37;12.43;;;5.13;;